Time;durP1;ratioP1;P1;durP2;ratioP2;P2;SDS_P1;SDS_P2;PMS_P1;PMS_P2;Temp;Humidity;BMP_temperature;BMP_pressure;BME280_temperature;BME280_humidity;BME280_pressure;Samples;Min_cycle;Max_cycle;Signal;HPM_P1;HPM_P2
2022/11/23 00:00:42;;;;;;;43.92;24.27;;;3.30;99.90;;;;;;2081269;28;20029;-69
2022/11/23 00:01:43;;;;;;;40.85;23.80;;;3.30;99.90;;;;;;2081949;28;20021;-69
2022/11/23 00:02:44;;;;;;;49.00;26.00;;;3.30;99.90;;;;;;2081361;28;20033;-69
2022/11/23 00:03:46;;;;;;;49.53;26.52;;;3.30;99.90;;;;;;2081248;28;20022;-69
2022/11/23 00:04:47;;;;;;;47.20;26.02;;;3.30;99.90;;;;;;2073123;28;20030;-69
2022/11/23 00:05:47;;;;;;;46.70;25.67;;;3.30;99.90;;;;;;2073163;28;20452;-69
2022/11/23 00:06:48;;;;;;;51.33;27.20;;;3.20;99.90;;;;;;2082003;28;20029;-69
2022/11/23 00:07:49;;;;;;;46.95;25.40;;;3.30;99.90;;;;;;2081857;28;20483;-69
2022/11/23 00:08:51;;;;;;;49.45;27.63;;;3.30;99.90;;;;;;2081757;28;20026;-70
2022/11/23 00:09:51;;;;;;;48.50;26.55;;;3.30;99.90;;;;;;2081898;28;20089;-69
2022/11/23 00:10:52;;;;;;;48.95;26.23;;;3.20;99.90;;;;;;2081866;28;20026;-69
2022/11/23 00:11:53;;;;;;;46.60;26.17;;;3.20;99.90;;;;;;2081297;28;20025;-70
2022/11/23 00:12:53;;;;;;;50.38;27.60;;;3.20;99.90;;;;;;2080795;28;20033;-69
2022/11/23 00:13:54;;;;;;;49.58;26.67;;;3.20;99.90;;;;;;2081787;28;20049;-69
2022/11/23 00:14:55;;;;;;;50.75;27.38;;;3.30;99.90;;;;;;2081388;28;20029;-69
2022/11/23 00:15:58;;;;;;;51.45;26.17;;;3.20;99.90;;;;;;2081526;28;20030;-70
2022/11/23 00:16:59;;;;;;;46.42;25.58;;;3.20;99.90;;;;;;2081724;28;20037;-69
2022/11/23 00:18:00;;;;;;;49.95;26.67;;;3.20;99.90;;;;;;2082084;28;20031;-68
2022/11/23 00:19:01;;;;;;;51.03;26.83;;;3.30;99.90;;;;;;2081449;28;20041;-69
2022/11/23 00:20:02;;;;;;;49.55;27.15;;;3.30;99.90;;;;;;2082026;28;20025;-69
2022/11/23 00:21:08;;;;;;;50.75;27.00;;;3.20;99.90;;;;;;2082116;28;20037;-69
2022/11/23 00:22:09;;;;;;;49.40;26.55;;;3.30;99.90;;;;;;2073394;28;20492;-69
2022/11/23 00:23:10;;;;;;;51.65;26.40;;;3.30;99.90;;;;;;2073351;28;20026;-68
2022/11/23 00:24:11;;;;;;;46.67;25.65;;;3.30;99.90;;;;;;2081655;28;20030;-68
2022/11/23 00:25:12;;;;;;;51.25;26.98;;;3.30;99.90;;;;;;2072462;28;20048;-69
2022/11/23 00:26:13;;;;;;;50.88;26.92;;;3.30;99.90;;;;;;2077115;28;20029;-68
2022/11/23 00:27:17;;;;;;;49.60;26.23;;;3.30;99.90;;;;;;2081080;28;20427;-68
2022/11/23 00:28:18;;;;;;;48.47;26.17;;;3.30;99.90;;;;;;2073761;28;20032;-69
2022/11/23 00:29:20;;;;;;;46.42;25.08;;;3.30;99.90;;;;;;2081800;28;20097;-68
2022/11/23 00:30:20;;;;;;;44.53;25.35;;;3.30;99.90;;;;;;2073204;28;20555;-68
2022/11/23 00:31:21;;;;;;;50.45;27.27;;;3.30;99.90;;;;;;2073144;28;20018;-69
2022/11/23 00:32:22;;;;;;;49.85;26.58;;;3.30;99.90;;;;;;2073242;28;20038;-68
2022/11/23 00:33:22;;;;;;;49.10;26.10;;;3.30;99.90;;;;;;2073734;28;20026;-69
2022/11/23 00:34:23;;;;;;;48.63;25.98;;;3.30;99.90;;;;;;2073549;28;20029;-68
2022/11/23 00:35:25;;;;;;;50.22;26.30;;;3.30;99.90;;;;;;2074896;28;20045;-69
2022/11/23 00:36:27;;;;;;;49.47;25.65;;;3.30;99.90;;;;;;2066479;28;20060;-69
2022/11/23 00:37:27;;;;;;;49.47;26.15;;;3.30;99.90;;;;;;2073666;28;20496;-69
2022/11/23 00:38:28;;;;;;;49.85;26.38;;;3.30;99.90;;;;;;2074394;28;20030;-68
2022/11/23 00:39:31;;;;;;;50.40;27.23;;;3.30;99.90;;;;;;2073380;28;20157;-69
2022/11/23 00:40:31;;;;;;;47.47;26.27;;;3.30;99.90;;;;;;2079166;28;20091;-69
2022/11/23 00:41:32;;;;;;;48.03;26.63;;;3.30;99.90;;;;;;2081335;28;20041;-68
2022/11/23 00:42:33;;;;;;;52.83;27.15;;;3.20;99.90;;;;;;2081679;28;20030;-68
2022/11/23 00:43:35;;;;;;;52.25;27.67;;;3.30;99.90;;;;;;2081648;28;20049;-69
2022/11/23 00:44:35;;;;;;;52.03;27.00;;;3.30;99.90;;;;;;2081079;28;20426;-69
2022/11/23 00:45:36;;;;;;;52.30;27.73;;;3.30;99.90;;;;;;2081283;28;20022;-69
2022/11/23 00:46:37;;;;;;;50.50;27.52;;;3.30;99.90;;;;;;2081556;28;20480;-70
2022/11/23 00:47:39;;;;;;;52.08;27.35;;;3.30;99.90;;;;;;2080534;28;20033;-69
2022/11/23 00:48:40;;;;;;;48.30;26.60;;;3.30;99.90;;;;;;2072466;28;20072;-69
2022/11/23 00:49:41;;;;;;;51.30;27.55;;;3.30;99.90;;;;;;2081283;28;20030;-69
2022/11/23 00:50:42;;;;;;;56.70;29.25;;;3.30;99.90;;;;;;2073635;28;20057;-69
2022/11/23 00:51:43;;;;;;;51.95;27.17;;;3.30;99.90;;;;;;2073321;28;20042;-69
2022/11/23 00:52:43;;;;;;;54.17;28.13;;;3.20;99.90;;;;;;2080889;28;20430;-70
2022/11/23 00:53:44;;;;;;;51.67;27.02;;;3.30;99.90;;;;;;2081354;28;20079;-69
2022/11/23 00:54:48;;;;;;;49.45;26.73;;;3.20;99.90;;;;;;2073357;28;20025;-69
2022/11/23 00:55:53;;;;;;;50.05;26.08;;;3.20;99.90;;;;;;2081194;28;20108;-69
2022/11/23 00:56:54;;;;;;;47.72;26.45;;;3.20;99.90;;;;;;2081499;28;20164;-69
2022/11/23 00:57:57;;;;;;;48.03;25.70;;;3.20;99.90;;;;;;2082960;28;20033;-69
2022/11/23 00:59:02;;;;;;;48.33;25.92;;;3.20;99.90;;;;;;2084188;28;20048;-69
2022/11/23 01:00:06;;;;;;;54.35;27.83;;;3.20;99.90;;;;;;2083468;28;20025;-68
2022/11/23 01:01:10;;;;;;;55.00;28.25;;;3.20;99.90;;;;;;2075052;28;20076;-68
2022/11/23 01:02:11;;;;;;;50.92;26.52;;;3.20;99.90;;;;;;2083172;28;20109;-67
2022/11/23 01:03:11;;;;;;;50.58;27.58;;;3.20;99.90;;;;;;2084001;28;20456;-68
2022/11/23 01:04:12;;;;;;;52.20;27.15;;;3.10;99.90;;;;;;2081922;28;20028;-68
2022/11/23 01:05:13;;;;;;;51.65;27.08;;;3.10;99.90;;;;;;2081535;28;20026;-68
2022/11/23 01:06:21;;;;;;;48.70;26.08;;;3.10;99.90;;;;;;2082365;28;20120;-68
2022/11/23 01:07:22;;;;;;;48.90;26.00;;;3.10;99.90;;;;;;2072899;28;20029;-68
2022/11/23 01:08:23;;;;;;;51.05;26.77;;;3.10;99.90;;;;;;2073961;28;20120;-69
2022/11/23 01:09:25;;;;;;;52.72;27.60;;;3.10;99.90;;;;;;2081734;28;20026;-68
2022/11/23 01:10:26;;;;;;;51.30;27.05;;;3.10;99.90;;;;;;2066120;28;20076;-68
2022/11/23 01:11:28;;;;;;;49.40;26.98;;;3.00;99.90;;;;;;2065562;28;20036;-70
2022/11/23 01:12:29;;;;;;;52.17;27.13;;;3.00;99.90;;;;;;2072463;28;20058;-69
2022/11/23 01:13:30;;;;;;;54.33;27.75;;;3.00;99.90;;;;;;2073704;28;20033;-69
2022/11/23 01:14:30;;;;;;;47.80;25.55;;;3.00;99.90;;;;;;2081301;28;20075;-69
2022/11/23 01:15:31;;;;;;;47.88;25.77;;;3.00;99.90;;;;;;2081289;28;20025;-68
2022/11/23 01:16:35;;;;;;;44.53;24.52;;;3.00;99.90;;;;;;2080936;28;20107;-69
2022/11/23 01:17:36;;;;;;;47.33;25.08;;;3.00;99.90;;;;;;2081896;28;20120;-69
2022/11/23 01:18:36;;;;;;;46.95;25.27;;;3.00;99.90;;;;;;2080980;28;20033;-68
2022/11/23 01:19:37;;;;;;;46.45;24.50;;;3.00;99.90;;;;;;2072316;28;20501;-68
2022/11/23 01:20:39;;;;;;;53.15;27.58;;;3.00;99.90;;;;;;2072557;28;20504;-69
2022/11/23 01:21:43;;;;;;;52.85;26.70;;;3.00;99.90;;;;;;2071698;28;20051;-68
2022/11/23 01:22:44;;;;;;;45.97;25.13;;;3.00;99.90;;;;;;2071694;28;20056;-68
2022/11/23 01:23:44;;;;;;;45.92;24.83;;;3.00;99.90;;;;;;2071612;28;20025;-68
2022/11/23 01:24:45;;;;;;;46.53;24.90;;;2.90;99.90;;;;;;2079730;28;20029;-68
2022/11/23 01:25:46;;;;;;;49.00;25.58;;;3.00;99.90;;;;;;2080201;28;20565;-68
2022/11/23 01:26:51;;;;;;;47.70;25.05;;;2.90;99.90;;;;;;2079832;28;20454;-68
2022/11/23 01:27:53;;;;;;;44.97;23.67;;;2.90;99.90;;;;;;2079720;28;20417;-69
2022/11/23 01:28:56;;;;;;;41.47;23.13;;;2.90;99.90;;;;;;2069238;28;20033;-69
2022/11/23 01:29:57;;;;;;;43.38;23.50;;;2.90;99.90;;;;;;2079524;28;20103;-69
2022/11/23 01:31:13;;;;;;;43.90;23.35;;;2.90;99.90;;;;;;2080156;28;20122;-69
2022/11/23 01:32:14;;;;;;;50.65;25.58;;;2.90;99.90;;;;;;2080258;28;20509;-69
2022/11/23 01:33:14;;;;;;;44.72;24.00;;;2.80;99.90;;;;;;2079569;28;20044;-68
2022/11/23 01:34:16;;;;;;;47.45;25.13;;;2.80;99.90;;;;;;2079428;28;20040;-68
2022/11/23 01:35:16;;;;;;;46.28;24.63;;;2.80;99.90;;;;;;2080221;28;20029;-68
2022/11/23 01:36:21;;;;;;;45.67;24.48;;;2.80;99.90;;;;;;2080256;28;20021;-68
2022/11/23 01:37:23;;;;;;;45.58;24.63;;;2.80;99.90;;;;;;2079482;28;20117;-68
2022/11/23 01:38:26;;;;;;;43.33;22.45;;;2.80;99.90;;;;;;2079867;28;20061;-68
2022/11/23 01:39:27;;;;;;;44.05;23.50;;;2.70;99.90;;;;;;2079105;28;20041;-68
2022/11/23 01:40:27;;;;;;;45.08;23.65;;;2.80;99.90;;;;;;2070914;28;20030;-69
2022/11/23 01:41:34;;;;;;;43.72;23.58;;;2.70;99.90;;;;;;2071248;28;20026;-68
2022/11/23 01:42:53;;;;;;;42.55;22.77;;;2.70;99.90;;;;;;2071230;28;20037;-69
2022/11/23 01:43:54;;;;;;;43.65;22.95;;;2.70;99.90;;;;;;2065337;28;20520;-70
2022/11/23 01:45:24;;;;;;;44.38;23.23;;;2.70;99.90;;;;;;2062953;28;20507;-68
2022/11/23 01:46:25;;;;;;;44.13;22.67;;;2.70;99.90;;;;;;2066610;28;20036;-68
2022/11/23 01:47:26;;;;;;;44.58;22.85;;;2.70;99.90;;;;;;2071046;28;20025;-68
2022/11/23 01:48:41;;;;;;;47.50;25.08;;;2.60;99.90;;;;;;2071988;28;20068;-68
2022/11/23 01:49:46;;;;;;;49.03;24.95;;;2.60;99.90;;;;;;2071372;28;20026;-68
2022/11/23 01:50:50;;;;;;;47.63;24.60;;;2.60;99.90;;;;;;2071406;28;20423;-69
2022/11/23 01:51:58;;;;;;;45.05;24.58;;;2.60;99.90;;;;;;2071207;28;20065;-68
2022/11/23 01:52:59;;;;;;;44.67;24.17;;;2.60;99.90;;;;;;2071209;28;20038;-68
2022/11/23 01:54:03;;;;;;;46.47;24.50;;;2.60;99.90;;;;;;2070942;28;20510;-68
2022/11/23 01:55:05;;;;;;;50.85;26.58;;;2.60;99.90;;;;;;2071024;28;20111;-68
2022/11/23 01:56:08;;;;;;;53.45;27.33;;;2.60;99.90;;;;;;2071127;28;20034;-68
2022/11/23 01:57:16;;;;;;;51.63;27.35;;;2.60;99.90;;;;;;2070629;28;20029;-68
2022/11/23 01:58:20;;;;;;;49.13;25.83;;;2.60;99.90;;;;;;2064065;28;20026;-68
2022/11/23 01:59:23;;;;;;;48.90;26.40;;;2.60;99.90;;;;;;2070937;28;20064;-68
2022/11/23 02:00:27;;;;;;;53.33;27.85;;;2.60;99.90;;;;;;2078996;28;20025;-68
2022/11/23 02:01:28;;;;;;;53.95;27.23;;;2.60;99.90;;;;;;2071650;28;20514;-68
2022/11/23 02:02:31;;;;;;;51.30;26.42;;;2.60;99.90;;;;;;2070917;28;20080;-68
2022/11/23 02:03:35;;;;;;;50.60;26.65;;;2.60;99.90;;;;;;2063075;28;20109;-68
2022/11/23 02:04:44;;;;;;;51.03;26.67;;;2.60;99.90;;;;;;2055938;28;20130;-68
2022/11/23 02:05:53;;;;;;;51.28;25.80;;;2.60;99.90;;;;;;2057248;28;20030;-69
2022/11/23 02:06:55;;;;;;;50.00;25.45;;;2.60;99.90;;;;;;2063501;28;20508;-69
2022/11/23 02:07:56;;;;;;;46.72;25.20;;;2.60;99.90;;;;;;2070945;28;20045;-68
2022/11/23 02:09:00;;;;;;;48.83;25.58;;;2.60;99.90;;;;;;2070811;28;20029;-69
2022/11/23 02:10:04;;;;;;;51.10;26.23;;;2.60;99.90;;;;;;2071093;28;20026;-69
2022/11/23 02:11:05;;;;;;;45.63;24.13;;;2.60;99.90;;;;;;2063201;28;20030;-68
2022/11/23 02:12:10;;;;;;;47.10;24.60;;;2.60;99.90;;;;;;2071039;28;20627;-68
2022/11/23 02:13:12;;;;;;;44.95;24.10;;;2.60;99.90;;;;;;2070768;28;20034;-68
2022/11/23 02:14:16;;;;;;;45.63;23.80;;;2.60;99.90;;;;;;2070895;28;20079;-70
2022/11/23 02:15:16;;;;;;;46.17;23.15;;;2.60;99.90;;;;;;2075625;28;20048;-69
2022/11/23 02:16:18;;;;;;;44.65;23.52;;;2.60;99.90;;;;;;2072091;28;20124;-68
2022/11/23 02:17:20;;;;;;;48.67;24.33;;;2.50;99.90;;;;;;2063491;28;20072;-68
2022/11/23 02:18:28;;;;;;;46.10;23.88;;;2.50;99.90;;;;;;2074401;28;20073;-69
2022/11/23 02:19:38;;;;;;;47.05;25.20;;;2.50;99.90;;;;;;2071455;28;20026;-68
2022/11/23 02:20:40;;;;;;;57.22;28.00;;;2.50;99.90;;;;;;2078152;28;20025;-69
2022/11/23 02:21:46;;;;;;;54.65;27.48;;;2.60;99.90;;;;;;2078673;28;20028;-68
2022/11/23 02:23:07;;;;;;;49.80;25.63;;;2.60;99.90;;;;;;2063113;28;20054;-69
2022/11/23 02:24:25;;;;;;;49.00;25.92;;;2.60;99.90;;;;;;2070892;28;20100;-69
2022/11/23 02:25:44;;;;;;;50.65;25.77;;;2.60;99.90;;;;;;2076981;28;20034;-68
2022/11/23 02:26:45;;;;;;;51.00;25.45;;;2.60;99.90;;;;;;2078852;28;20078;-68
2022/11/23 02:27:45;;;;;;;50.28;25.77;;;2.60;99.90;;;;;;2070568;28;20105;-68
2022/11/23 02:28:52;;;;;;;46.78;24.80;;;2.60;99.90;;;;;;2078712;28;20028;-68
2022/11/23 02:29:55;;;;;;;48.22;24.42;;;2.60;99.90;;;;;;2071002;28;20033;-69
2022/11/23 02:30:56;;;;;;;46.13;25.05;;;2.60;99.90;;;;;;2070987;28;20062;-69
2022/11/23 02:31:57;;;;;;;51.20;25.83;;;2.60;99.90;;;;;;2078860;28;20035;-68
2022/11/23 02:32:58;;;;;;;49.38;25.70;;;2.60;99.90;;;;;;2079087;28;20474;-68
2022/11/23 02:33:59;;;;;;;48.30;26.35;;;2.60;99.90;;;;;;2078924;28;20055;-68
2022/11/23 02:35:00;;;;;;;51.92;26.45;;;2.60;99.90;;;;;;2079193;28;20503;-68
2022/11/23 02:36:01;;;;;;;51.75;27.08;;;2.60;99.90;;;;;;2078713;28;20025;-68
2022/11/23 02:37:03;;;;;;;51.45;26.02;;;2.60;99.90;;;;;;2078958;28;20068;-68
2022/11/23 02:38:05;;;;;;;50.67;25.27;;;2.60;99.90;;;;;;2078832;28;20080;-68
2022/11/23 02:39:25;;;;;;;50.60;26.58;;;2.60;99.90;;;;;;2078733;28;20056;-68
2022/11/23 02:40:34;;;;;;;51.50;25.88;;;2.60;99.90;;;;;;2078628;28;20021;-68
2022/11/23 02:41:41;;;;;;;49.47;24.95;;;2.60;99.90;;;;;;2079086;28;20018;-68
2022/11/23 02:42:44;;;;;;;48.17;25.48;;;2.60;99.90;;;;;;2078795;28;20033;-68
2022/11/23 02:43:51;;;;;;;51.38;26.73;;;2.60;99.90;;;;;;2070983;28;20026;-68
2022/11/23 02:45:17;;;;;;;51.78;26.98;;;2.60;99.90;;;;;;2078757;28;20087;-70
2022/11/23 02:46:18;;;;;;;47.13;24.65;;;2.60;99.90;;;;;;2079250;28;20551;-68
2022/11/23 02:47:23;;;;;;;49.60;25.05;;;2.60;99.90;;;;;;2079636;28;20463;-68
2022/11/23 02:48:25;;;;;;;48.72;25.80;;;2.60;99.90;;;;;;2079506;28;20068;-69
2022/11/23 02:49:25;;;;;;;50.28;25.63;;;2.70;99.90;;;;;;2078704;28;20017;-69
2022/11/23 02:50:26;;;;;;;49.80;25.92;;;2.70;99.90;;;;;;2078947;28;20401;-69
2022/11/23 02:51:27;;;;;;;45.67;24.38;;;2.60;99.90;;;;;;2070728;28;20121;-69
2022/11/23 02:52:28;;;;;;;45.67;23.80;;;2.60;99.90;;;;;;2062655;28;20877;-69
2022/11/23 02:53:30;;;;;;;52.83;26.40;;;2.60;99.90;;;;;;2078986;28;20021;-68
2022/11/23 02:54:32;;;;;;;43.13;23.83;;;2.60;99.90;;;;;;2078708;28;20431;-69
2022/11/23 02:55:33;;;;;;;46.85;24.85;;;2.60;99.90;;;;;;2070661;28;20045;-69
2022/11/23 02:56:34;;;;;;;46.28;25.08;;;2.60;99.90;;;;;;2070644;28;20022;-69
2022/11/23 02:57:37;;;;;;;45.20;24.77;;;2.70;99.90;;;;;;2078788;28;20033;-69
2022/11/23 02:58:38;;;;;;;43.13;23.85;;;2.60;99.90;;;;;;2070771;28;20085;-69
2022/11/23 02:59:41;;;;;;;46.58;24.63;;;2.70;99.90;;;;;;2078422;28;20025;-69
2022/11/23 03:00:41;;;;;;;44.63;23.63;;;2.60;99.90;;;;;;2070551;28;20096;-69
2022/11/23 03:01:42;;;;;;;51.30;26.05;;;2.60;99.90;;;;;;2078997;28;20028;-68
2022/11/23 03:02:43;;;;;;;49.50;25.52;;;2.70;99.90;;;;;;2079545;28;20476;-68
2022/11/23 03:03:45;;;;;;;46.38;24.75;;;2.60;99.90;;;;;;2078604;28;20034;-67
2022/11/23 03:04:46;;;;;;;47.90;25.65;;;2.70;99.90;;;;;;2070363;28;20072;-69
2022/11/23 03:05:46;;;;;;;45.47;24.80;;;2.70;99.90;;;;;;2078957;28;20181;-68
2022/11/23 03:06:47;;;;;;;45.47;24.33;;;2.70;99.90;;;;;;2079574;28;20030;-69
2022/11/23 03:07:48;;;;;;;52.55;26.90;;;2.70;99.90;;;;;;2078737;28;20148;-69
2022/11/23 03:08:49;;;;;;;49.72;26.45;;;2.70;99.90;;;;;;2070469;28;20034;-69
2022/11/23 03:09:51;;;;;;;51.60;26.45;;;2.70;99.90;;;;;;2070876;28;20029;-69
2022/11/23 03:10:53;;;;;;;48.83;25.58;;;2.70;99.90;;;;;;2079716;28;20060;-69
2022/11/23 03:11:54;;;;;;;49.92;25.88;;;2.70;99.90;;;;;;2070691;28;20022;-68
2022/11/23 03:12:55;;;;;;;50.83;26.77;;;2.70;99.90;;;;;;2070809;28;20026;-69
2022/11/23 03:13:56;;;;;;;52.15;27.38;;;2.70;99.90;;;;;;2070188;28;20029;-69
2022/11/23 03:14:58;;;;;;;51.55;26.60;;;2.70;99.90;;;;;;2070314;28;20033;-69
2022/11/23 03:15:58;;;;;;;51.42;27.23;;;2.70;99.90;;;;;;2070643;28;20113;-68
2022/11/23 03:17:00;;;;;;;51.20;26.10;;;2.80;99.90;;;;;;2070575;28;20029;-68
2022/11/23 03:18:04;;;;;;;51.35;26.08;;;2.80;99.90;;;;;;2070599;28;20449;-68
2022/11/23 03:19:06;;;;;;;49.90;25.83;;;2.80;99.90;;;;;;2070345;28;20432;-69
2022/11/23 03:20:07;;;;;;;48.88;26.60;;;2.80;99.90;;;;;;2070473;28;20109;-69
2022/11/23 03:21:12;;;;;;;51.60;26.17;;;2.80;99.90;;;;;;2064835;28;20030;-69
2022/11/23 03:22:13;;;;;;;49.60;26.08;;;2.80;99.90;;;;;;2078772;28;20022;-69
2022/11/23 03:23:13;;;;;;;48.22;26.02;;;2.80;99.90;;;;;;2079639;28;20047;-69
2022/11/23 03:24:16;;;;;;;48.25;25.27;;;2.80;99.90;;;;;;2083061;28;20017;-69
2022/11/23 03:25:16;;;;;;;53.05;27.95;;;2.80;99.90;;;;;;2066659;28;20031;-68
2022/11/23 03:26:21;;;;;;;54.72;28.27;;;2.80;99.90;;;;;;2068952;28;20022;-69
2022/11/23 03:27:32;;;;;;;56.78;27.30;;;2.80;99.90;;;;;;2071854;28;20100;-69
2022/11/23 03:28:33;;;;;;;50.90;26.98;;;2.80;99.90;;;;;;2070390;28;20037;-68
2022/11/23 03:29:34;;;;;;;49.80;25.60;;;2.80;99.90;;;;;;2062477;28;20022;-69
2022/11/23 03:30:42;;;;;;;50.33;25.55;;;2.80;99.90;;;;;;2071415;28;20078;-69
2022/11/23 03:31:43;;;;;;;46.65;24.45;;;2.80;99.90;;;;;;2078649;28;20159;-69
2022/11/23 03:32:47;;;;;;;47.53;24.52;;;2.80;99.90;;;;;;2078601;28;20053;-69
2022/11/23 03:33:48;;;;;;;47.88;24.83;;;2.80;99.90;;;;;;2070552;28;20026;-69
2022/11/23 03:34:49;;;;;;;49.78;24.88;;;2.80;99.90;;;;;;2070385;28;20026;-69
2022/11/23 03:35:51;;;;;;;47.22;24.92;;;2.80;99.90;;;;;;2071444;28;20038;-67
2022/11/23 03:36:56;;;;;;;50.75;25.90;;;2.80;99.90;;;;;;2072760;28;20156;-68
2022/11/23 03:37:58;;;;;;;50.45;26.20;;;2.90;99.90;;;;;;2072280;28;20022;-67
2022/11/23 03:39:00;;;;;;;49.47;24.25;;;2.90;99.90;;;;;;2072266;28;20479;-67
2022/11/23 03:40:20;;;;;;;49.78;26.63;;;2.90;99.90;;;;;;2074811;28;20076;-67
2022/11/23 03:41:39;;;;;;;51.15;24.95;;;2.90;99.90;;;;;;2081731;28;20029;-68
2022/11/23 03:42:40;;;;;;;50.88;25.92;;;2.90;99.90;;;;;;2081022;28;20029;-68
2022/11/23 03:43:41;;;;;;;49.08;25.67;;;2.90;99.90;;;;;;2064516;28;20014;-68
2022/11/23 03:44:42;;;;;;;50.00;24.73;;;2.90;99.90;;;;;;2064817;28;20125;-68
2022/11/23 03:45:43;;;;;;;48.42;23.73;;;2.90;99.90;;;;;;2080793;28;20022;-68
2022/11/23 03:46:43;;;;;;;46.50;23.75;;;2.90;99.90;;;;;;2081158;28;20029;-69
2022/11/23 03:47:44;;;;;;;47.15;23.40;;;2.80;99.90;;;;;;2080819;28;20052;-68
2022/11/23 03:48:45;;;;;;;45.90;23.67;;;2.80;99.90;;;;;;2080877;28;20037;-68
2022/11/23 03:49:46;;;;;;;46.45;23.23;;;2.80;99.90;;;;;;2080456;28;20025;-68
2022/11/23 03:50:47;;;;;;;44.88;23.77;;;2.80;99.90;;;;;;2080428;28;20041;-69
2022/11/23 03:51:47;;;;;;;46.00;23.95;;;2.80;99.90;;;;;;2072157;28;20022;-68
2022/11/23 03:52:49;;;;;;;47.00;24.17;;;2.90;99.90;;;;;;2080323;28;20492;-68
2022/11/23 03:53:50;;;;;;;41.90;22.55;;;2.80;99.90;;;;;;2072299;28;20030;-68
2022/11/23 03:54:52;;;;;;;48.63;24.08;;;2.80;99.90;;;;;;2072350;28;20022;-69
2022/11/23 03:55:55;;;;;;;43.33;23.45;;;2.90;99.90;;;;;;2072125;28;20056;-70
2022/11/23 03:56:58;;;;;;;50.35;25.20;;;2.80;99.90;;;;;;2080390;28;20104;-69
2022/11/23 03:57:58;;;;;;;48.53;25.80;;;2.80;99.90;;;;;;2080954;28;20036;-68
2022/11/23 03:59:00;;;;;;;47.25;24.80;;;2.80;99.90;;;;;;2080214;28;20029;-67
2022/11/23 04:00:04;;;;;;;50.58;26.02;;;2.80;99.90;;;;;;2072297;28;20029;-67
2022/11/23 04:01:14;;;;;;;47.72;25.38;;;2.80;99.90;;;;;;2073713;28;20030;-67
2022/11/23 04:02:17;;;;;;;54.30;25.83;;;2.80;99.90;;;;;;2073680;28;20057;-68
2022/11/23 04:03:35;;;;;;;49.42;24.30;;;2.80;99.90;;;;;;2073881;28;20080;-67
2022/11/23 04:04:47;;;;;;;52.50;25.92;;;2.90;99.90;;;;;;2073370;28;20026;-69
2022/11/23 04:06:26;;;;;;;49.97;25.42;;;2.90;99.90;;;;;;2071237;28;20088;-69
2022/11/23 04:07:34;;;;;;;51.38;25.25;;;2.90;99.90;;;;;;2071215;28;20091;-67
2022/11/23 04:08:38;;;;;;;48.10;24.23;;;2.90;99.90;;;;;;2071060;28;20026;-67
2022/11/23 04:09:43;;;;;;;50.50;25.80;;;2.90;99.90;;;;;;2071070;28;20025;-67
2022/11/23 04:11:10;;;;;;;51.50;25.67;;;2.90;99.90;;;;;;2067741;28;20057;-69
2022/11/23 04:12:12;;;;;;;48.45;23.88;;;2.90;99.90;;;;;;2071893;28;20026;-67
2022/11/23 04:13:14;;;;;;;45.97;24.13;;;2.90;99.90;;;;;;2071971;28;20034;-68
2022/11/23 04:14:15;;;;;;;47.45;24.20;;;2.90;99.90;;;;;;2072207;28;20137;-67
2022/11/23 04:15:16;;;;;;;51.85;25.52;;;2.90;99.90;;;;;;2072855;28;20068;-68
2022/11/23 04:16:17;;;;;;;50.67;25.27;;;2.90;99.90;;;;;;2064551;28;20054;-68
2022/11/23 04:17:19;;;;;;;51.60;24.60;;;2.90;99.90;;;;;;2072309;28;20026;-68
2022/11/23 04:18:19;;;;;;;51.08;25.25;;;2.80;99.90;;;;;;2079865;28;20040;-68
2022/11/23 04:19:20;;;;;;;45.95;23.70;;;2.90;99.90;;;;;;2071408;28;20056;-67
2022/11/23 04:20:21;;;;;;;44.00;23.00;;;2.90;99.90;;;;;;2071441;28;20018;-69
2022/11/23 04:21:22;;;;;;;49.90;24.05;;;2.90;99.90;;;;;;2063691;28;20030;-68
2022/11/23 04:22:23;;;;;;;47.20;23.85;;;2.90;99.90;;;;;;2063455;28;20640;-68
2022/11/23 04:23:24;;;;;;;44.25;22.88;;;2.90;99.90;;;;;;2071700;28;20025;-68
2022/11/23 04:24:25;;;;;;;44.83;23.45;;;2.90;99.90;;;;;;2071610;28;20392;-68
2022/11/23 04:25:28;;;;;;;43.13;23.45;;;2.90;99.90;;;;;;2072131;28;20538;-68
2022/11/23 04:26:29;;;;;;;44.90;23.77;;;2.90;99.90;;;;;;2063752;28;20026;-68
2022/11/23 04:27:30;;;;;;;47.88;24.58;;;2.90;99.90;;;;;;2071698;28;20113;-68
2022/11/23 04:28:31;;;;;;;44.90;22.60;;;2.90;99.90;;;;;;2080060;28;20021;-68
2022/11/23 04:29:31;;;;;;;42.40;22.17;;;2.90;99.90;;;;;;2079569;28;20079;-68
2022/11/23 04:30:32;;;;;;;44.58;22.50;;;2.90;99.90;;;;;;2071688;28;20029;-68
2022/11/23 04:31:33;;;;;;;46.30;24.10;;;2.90;99.90;;;;;;2079902;28;20164;-68
2022/11/23 04:32:48;;;;;;;45.85;22.95;;;2.90;99.90;;;;;;2080466;28;20025;-68
2022/11/23 04:33:49;;;;;;;41.75;21.90;;;2.90;99.90;;;;;;2079851;28;20027;-68
2022/11/23 04:34:52;;;;;;;42.25;22.42;;;2.90;99.90;;;;;;2071763;28;20160;-68
2022/11/23 04:35:53;;;;;;;43.30;22.10;;;2.90;99.90;;;;;;2071687;28;20655;-68
2022/11/23 04:36:53;;;;;;;40.70;21.65;;;2.90;99.90;;;;;;2063575;28;20381;-68
2022/11/23 04:38:01;;;;;;;45.20;22.25;;;2.90;99.90;;;;;;2065285;28;20022;-68
2022/11/23 04:39:05;;;;;;;41.50;22.08;;;2.90;99.90;;;;;;2071688;28;20534;-68
2022/11/23 04:40:16;;;;;;;45.13;23.25;;;2.90;99.90;;;;;;2072747;28;20834;-68
2022/11/23 04:41:25;;;;;;;46.67;24.33;;;2.90;99.90;;;;;;2072775;28;20056;-68
2022/11/23 04:42:27;;;;;;;45.63;23.95;;;2.90;99.90;;;;;;2079634;28;20071;-68
2022/11/23 04:43:32;;;;;;;43.60;23.50;;;2.90;99.90;;;;;;2079619;28;20028;-68
2022/11/23 04:44:32;;;;;;;42.88;23.25;;;2.90;99.90;;;;;;2079658;28;20028;-68
2022/11/23 04:45:38;;;;;;;45.55;23.38;;;2.90;99.90;;;;;;2071911;28;20018;-67
2022/11/23 04:46:42;;;;;;;43.45;23.88;;;2.90;99.90;;;;;;2071863;28;20030;-69
2022/11/23 04:47:46;;;;;;;44.88;23.90;;;2.80;99.90;;;;;;2079437;28;20036;-67
2022/11/23 04:48:49;;;;;;;43.33;23.23;;;2.90;99.90;;;;;;2071422;28;20030;-68
2022/11/23 04:49:51;;;;;;;41.17;22.38;;;2.80;99.90;;;;;;2071755;28;20381;-67
2022/11/23 04:50:53;;;;;;;44.70;23.67;;;2.80;99.90;;;;;;2071636;28;20049;-68
2022/11/23 04:52:00;;;;;;;45.05;23.38;;;2.80;99.90;;;;;;2072144;28;20025;-68
2022/11/23 04:53:07;;;;;;;43.95;23.48;;;2.80;99.90;;;;;;2072348;28;20033;-68
2022/11/23 04:54:14;;;;;;;41.97;21.83;;;2.80;99.90;;;;;;2072305;28;20116;-70
2022/11/23 04:55:22;;;;;;;50.92;26.30;;;2.80;99.90;;;;;;2064353;28;20129;-67
2022/11/23 04:56:29;;;;;;;46.75;24.77;;;2.80;99.90;;;;;;2066118;28;20031;-68
2022/11/23 04:57:31;;;;;;;47.47;25.67;;;2.80;99.90;;;;;;2071208;28;20033;-68
2022/11/23 04:58:32;;;;;;;46.85;25.10;;;2.80;99.90;;;;;;2071401;28;20026;-68
2022/11/23 04:59:32;;;;;;;50.30;25.75;;;2.80;99.90;;;;;;2071031;28;20044;-67
2022/11/23 05:00:33;;;;;;;47.97;26.10;;;2.90;99.90;;;;;;2079594;28;20179;-69
2022/11/23 05:01:36;;;;;;;48.17;26.30;;;2.90;99.90;;;;;;2079688;28;20039;-69
2022/11/23 05:02:59;;;;;;;50.08;26.33;;;2.90;99.90;;;;;;2081168;28;20037;-67
2022/11/23 05:04:02;;;;;;;52.60;27.73;;;2.90;99.90;;;;;;2082914;28;20071;-69
2022/11/23 05:05:03;;;;;;;57.72;29.17;;;2.90;99.90;;;;;;2075549;28;20037;-70
2022/11/23 05:06:06;;;;;;;61.25;32.92;;;2.90;99.90;;;;;;2082710;28;20119;-70
2022/11/23 05:07:12;;;;;;;58.60;31.80;;;2.90;99.90;;;;;;2065392;28;20054;-70
2022/11/23 05:08:15;;;;;;;62.63;34.30;;;2.80;99.90;;;;;;2071779;28;20098;-70
2022/11/23 05:09:24;;;;;;;61.13;33.03;;;2.80;99.90;;;;;;2083542;28;20020;-71
2022/11/23 05:10:36;;;;;;;63.85;34.15;;;2.80;99.90;;;;;;2078419;28;20350;-70
2022/11/23 05:11:39;;;;;;;66.85;34.88;;;2.80;99.90;;;;;;2067374;28;20022;-71
2022/11/23 05:12:41;;;;;;;61.67;33.47;;;2.80;99.90;;;;;;2072135;28;20037;-69
2022/11/23 05:13:43;;;;;;;58.20;31.85;;;2.80;99.90;;;;;;2071566;28;20883;-70
2022/11/23 05:14:44;;;;;;;57.83;32.30;;;2.80;99.90;;;;;;2079791;28;20021;-70
2022/11/23 05:15:47;;;;;;;74.63;39.33;;;2.80;99.90;;;;;;2071436;28;20068;-69
2022/11/23 05:16:53;;;;;;;83.88;42.78;;;2.80;99.90;;;;;;2064032;28;20801;-70
2022/11/23 05:18:00;;;;;;;83.78;41.88;;;2.80;99.90;;;;;;2064109;28;20742;-69
2022/11/23 05:19:01;;;;;;;79.25;40.00;;;2.80;99.90;;;;;;2071960;28;20120;-69
2022/11/23 05:20:03;;;;;;;76.28;39.35;;;2.80;99.90;;;;;;2071258;28;20404;-69
2022/11/23 05:21:06;;;;;;;66.50;35.75;;;2.80;99.90;;;;;;2071550;28;20041;-70
2022/11/23 05:22:07;;;;;;;64.72;36.10;;;2.80;99.90;;;;;;2079548;28;20057;-68
2022/11/23 05:23:10;;;;;;;65.25;35.50;;;2.70;99.90;;;;;;2079432;28;20493;-68
2022/11/23 05:24:14;;;;;;;65.45;35.10;;;2.80;99.90;;;;;;2071508;28;20069;-69
2022/11/23 05:25:22;;;;;;;64.32;35.15;;;2.70;99.90;;;;;;2072108;28;20037;-68